Time;durP1;ratioP1;P1;durP2;ratioP2;P2;SDS_P1;SDS_P2;PMS_P1;PMS_P2;Temp;Humidity;BMP_temperature;BMP_pressure;BME280_temperature;BME280_humidity;BME280_pressure;Samples;Min_cycle;Max_cycle;Signal;HPM_P1;HPM_P2
2022/09/03 00:00:56;;;;;;;2.43;0.90;;;;;;;14.83;54.06;100852.59;5029627;28;20202;-82
2022/09/03 00:03:27;;;;;;;1.87;1.10;;;;;;;14.81;54.01;100844.66;5030056;28;20214;-82
2022/09/03 00:06:03;;;;;;;5.87;1.00;;;;;;;14.80;54.10;100845.63;5022313;28;20685;-82
2022/09/03 00:08:35;;;;;;;2.50;1.30;;;;;;;14.76;54.02;100841.47;5031182;28;20210;-82
2022/09/03 00:11:07;;;;;;;2.80;0.90;;;;;;;14.70;54.66;100835.72;5033845;28;20198;-82
2022/09/03 00:13:38;;;;;;;0.87;0.73;;;;;;;14.59;54.84;100829.38;5033102;28;20218;-82
2022/09/03 00:16:10;;;;;;;1.00;0.90;;;;;;;14.51;54.92;100830.97;5027426;28;20222;-81
2022/09/03 00:18:43;;;;;;;5.37;1.47;;;;;;;14.44;55.61;100825.22;5035137;28;20221;-82
2022/09/03 00:21:13;;;;;;;2.00;1.37;;;;;;;14.37;55.42;100826.59;5030036;28;20206;-82
2022/09/03 00:23:42;;;;;;;2.83;1.00;;;;;;;14.33;55.88;100825.13;5021479;28;20210;-82
2022/09/03 00:26:21;;;;;;;1.97;1.03;;;;;;;14.28;55.99;100819.28;5034295;28;20683;-82
2022/09/03 00:28:54;;;;;;;1.23;0.80;;;;;;;14.25;56.00;100823.03;5028927;28;20244;-81
2022/09/03 00:31:28;;;;;;;1.00;0.90;;;;;;;14.23;56.30;100821.44;5019728;28;20214;-81
2022/09/03 00:33:58;;;;;;;2.47;1.00;;;;;;;14.21;56.81;100824.25;5023044;28;20199;-82
2022/09/03 00:36:31;;;;;;;1.00;0.90;;;;;;;14.20;56.44;100827.03;5023696;28;20662;-82
2022/09/03 00:38:58;;;;;;;3.07;1.00;;;;;;;14.21;56.79;100826.91;5022218;28;20202;-82
2022/09/03 00:41:33;;;;;;;3.07;1.03;;;;;;;14.22;56.81;100819.75;5026250;28;20252;-82
2022/09/03 00:44:14;;;;;;;1.43;1.03;;;;;;;14.21;56.74;100818.88;5028817;28;20202;-82
2022/09/03 00:46:47;;;;;;;1.83;1.10;;;;;;;14.21;56.98;100816.19;5026581;28;20233;-82
2022/09/03 00:49:31;;;;;;;2.53;1.00;;;;;;;14.21;57.12;100816.19;5026400;28;20202;-82
2022/09/03 00:52:11;;;;;;;2.33;1.10;;;;;;;14.20;57.16;100822.53;5031349;28;20692;-81
2022/09/03 00:54:46;;;;;;;0.83;0.83;;;;;;;14.19;57.18;100812.78;5032008;28;20203;-82
2022/09/03 00:57:27;;;;;;;6.20;1.43;;;;;;;14.17;56.97;100812.03;5029867;28;20225;-82
2022/09/03 01:00:01;;;;;;;2.47;1.30;;;;;;;14.15;57.11;100808.63;5025789;28;20202;-81
2022/09/03 01:02:37;;;;;;;1.70;0.90;;;;;;;14.14;57.31;100811.44;5029660;28;20609;-81
2022/09/03 01:05:11;;;;;;;2.27;0.93;;;;;;;14.12;57.35;100810.72;5037478;28;20249;-81
2022/09/03 01:07:45;;;;;;;4.17;0.90;;;;;;;14.08;57.63;100815.44;5027074;28;20194;-81
2022/09/03 01:10:24;;;;;;;2.23;1.00;;;;;;;14.06;57.71;100811.16;5025490;28;20198;-81
2022/09/03 01:12:56;;;;;;;1.70;1.20;;;;;;;14.04;57.99;100811.28;5036030;28;20209;-81
2022/09/03 01:15:31;;;;;;;2.83;1.00;;;;;;;14.01;58.04;100821.34;5026983;28;20212;-81
2022/09/03 01:18:16;;;;;;;2.13;1.00;;;;;;;13.98;57.74;100811.72;5022362;28;20257;-81
2022/09/03 01:20:51;;;;;;;1.30;0.83;;;;;;;13.96;58.13;100818.19;5027618;28;20202;-82
2022/09/03 01:23:43;;;;;;;2.07;1.10;;;;;;;13.93;58.15;100818.41;5022492;28;20578;-81
2022/09/03 01:26:46;;;;;;;1.70;1.27;;;;;;;13.89;58.00;100818.63;5018731;28;20241;-81
2022/09/03 01:29:23;;;;;;;1.97;1.17;;;;;;;13.86;58.08;100818.84;4981539;28;20207;-81
2022/09/03 01:32:01;;;;;;;2.40;1.10;;;;;;;13.83;58.50;100818.22;5023836;28;20217;-81
2022/09/03 01:34:41;;;;;;;1.23;1.00;;;;;;;13.81;58.68;100815.66;5021742;28;20206;-81
2022/09/03 01:37:19;;;;;;;2.90;1.20;;;;;;;13.78;58.89;100821.25;5028385;28;20309;-81
2022/09/03 01:39:56;;;;;;;2.97;1.10;;;;;;;13.76;58.82;100823.19;5033818;28;20213;-81
2022/09/03 01:42:32;;;;;;;1.67;0.97;;;;;;;13.75;58.97;100825.97;5019639;28;20205;-81
2022/09/03 01:45:34;;;;;;;0.93;0.80;;;;;;;13.73;58.56;100822.56;5026623;28;20194;-81
2022/09/03 01:48:15;;;;;;;1.27;0.90;;;;;;;13.71;58.94;100824.50;5007363;28;20213;-82
2022/09/03 01:50:48;;;;;;;2.93;1.50;;;;;;;13.70;59.15;100831.66;5032881;28;20229;-82
2022/09/03 01:53:31;;;;;;;1.50;0.90;;;;;;;13.69;59.25;100823.75;5029831;28;20217;-82
2022/09/03 01:56:12;;;;;;;1.27;1.03;;;;;;;13.67;58.78;100833.72;5031376;28;20222;-83
2022/09/03 01:58:44;;;;;;;1.13;1.00;;;;;;;13.65;59.48;100824.94;5029821;28;20213;-82
2022/09/03 02:01:18;;;;;;;1.80;1.00;;;;;;;13.63;59.26;100824.19;5029205;28;20236;-83
2022/09/03 02:03:45;;;;;;;1.20;1.10;;;;;;;13.61;59.53;100821.66;5026907;28;20213;-82
2022/09/03 02:06:12;;;;;;;1.20;1.10;;;;;;;13.60;59.27;100833.31;5027367;28;20256;-82
2022/09/03 02:08:40;;;;;;;1.73;1.00;;;;;;;13.58;59.51;100827.22;5020708;28;20203;-82
2022/09/03 02:11:09;;;;;;;1.13;1.00;;;;;;;13.57;59.91;100832.69;5029739;28;20225;-82
2022/09/03 02:13:38;;;;;;;1.37;1.00;;;;;;;13.55;59.49;100830.97;5027031;28;20214;-82
2022/09/03 02:16:11;;;;;;;1.60;1.00;;;;;;;13.54;59.46;100828.41;5031148;28;20580;-82
2022/09/03 02:18:42;;;;;;;2.40;0.90;;;;;;;13.52;60.03;100822.31;5032445;28;20198;-82
2022/09/03 02:21:10;;;;;;;2.00;1.00;;;;;;;13.50;60.10;100826.91;5025248;28;20206;-82
2022/09/03 02:23:40;;;;;;;1.93;0.90;;;;;;;13.49;59.82;100830.56;5025550;28;20214;-81
2022/09/03 02:26:08;;;;;;;1.67;1.20;;;;;;;13.47;60.16;100830.66;5029406;28;20898;-81
2022/09/03 02:28:34;;;;;;;1.93;1.40;;;;;;;13.45;59.98;100829.91;5028786;28;20218;-81
2022/09/03 02:31:01;;;;;;;2.23;0.77;;;;;;;13.44;60.11;100827.34;5032153;28;20297;-81
2022/09/03 02:33:28;;;;;;;2.80;1.30;;;;;;;13.43;60.20;100833.69;5025336;28;20225;-81
2022/09/03 02:35:56;;;;;;;1.10;1.00;;;;;;;13.41;60.20;100827.59;5030083;28;20234;-81
2022/09/03 02:38:25;;;;;;;1.43;1.10;;;;;;;13.40;60.43;100826.72;5022686;28;20205;-81
2022/09/03 02:40:53;;;;;;;1.00;0.80;;;;;;;13.38;60.11;100817.97;5025826;28;20201;-82
2022/09/03 02:43:23;;;;;;;1.70;0.90;;;;;;;13.36;60.07;100821.72;5035645;28;20199;-81
2022/09/03 02:45:53;;;;;;;2.40;1.20;;;;;;;13.33;60.42;100821.94;5025970;28;20716;-81
2022/09/03 02:48:23;;;;;;;2.40;1.13;;;;;;;13.28;60.22;100827.59;5022494;28;20716;-82
2022/09/03 02:50:50;;;;;;;1.63;1.10;;;;;;;13.24;60.47;100825.28;5016535;28;20207;-82
2022/09/03 02:53:18;;;;;;;0.97;0.90;;;;;;;13.22;61.03;100827.19;5026969;28;20205;-82
2022/09/03 02:55:44;;;;;;;1.37;1.03;;;;;;;13.18;61.15;100827.41;5023823;28;20229;-82
2022/09/03 02:58:11;;;;;;;1.40;1.13;;;;;;;13.16;60.93;100823.13;5032157;28;20209;-81
2022/09/03 03:00:37;;;;;;;1.10;1.00;;;;;;;13.15;61.34;100822.28;5020452;28;20253;-81
2022/09/03 03:03:04;;;;;;;4.83;1.23;;;;;;;13.15;61.13;100824.94;5025932;28;20218;-82
2022/09/03 03:05:41;;;;;;;2.17;1.20;;;;;;;13.14;61.45;100827.69;5027044;28;20214;-81
2022/09/03 03:08:07;;;;;;;2.67;1.00;;;;;;;13.12;61.47;100825.13;5028628;28;20206;-81
2022/09/03 03:10:36;;;;;;;1.50;1.00;;;;;;;13.11;61.82;100819.88;5026585;28;20215;-82
2022/09/03 03:13:03;;;;;;;1.57;0.90;;;;;;;13.09;61.70;100824.50;5012546;28;20242;-81
2022/09/03 03:15:30;;;;;;;3.87;1.17;;;;;;;13.09;61.68;100820.00;5012293;28;20213;-81
2022/09/03 03:17:56;;;;;;;1.53;0.87;;;;;;;13.09;61.89;100828.03;5025535;28;20210;-81
2022/09/03 03:20:23;;;;;;;1.73;1.03;;;;;;;13.08;61.63;100820.97;5022609;28;20203;-81
2022/09/03 03:22:50;;;;;;;1.70;1.10;;;;;;;13.08;61.66;100815.63;5020140;28;20310;-81
2022/09/03 03:25:17;;;;;;;2.20;1.10;;;;;;;13.08;61.64;100815.63;5036425;28;20676;-82
2022/09/03 03:27:45;;;;;;;1.60;1.10;;;;;;;13.08;61.95;100815.63;5033230;28;20238;-81
2022/09/03 03:30:12;;;;;;;1.63;1.10;;;;;;;13.07;62.07;100819.28;5024406;28;20237;-81
2022/09/03 03:32:40;;;;;;;2.33;1.10;;;;;;;13.06;61.87;100816.72;5021251;28;20213;-81
2022/09/03 03:35:07;;;;;;;3.73;1.17;;;;;;;13.05;61.99;100818.53;5018124;28;20203;-81
2022/09/03 03:37:34;;;;;;;3.63;1.30;;;;;;;13.05;62.02;100820.34;5023003;28;20238;-81
2022/09/03 03:40:01;;;;;;;1.50;0.90;;;;;;;13.04;62.11;100813.28;5027536;28;20210;-82
2022/09/03 03:42:28;;;;;;;1.40;1.10;;;;;;;13.03;61.97;100817.78;5035847;28;20301;-82
2022/09/03 03:44:56;;;;;;;1.83;1.00;;;;;;;13.03;62.10;100823.13;5028262;28;20213;-82
2022/09/03 03:47:23;;;;;;;2.50;1.10;;;;;;;13.02;62.47;100815.22;5031580;28;20336;-82
2022/09/03 03:49:49;;;;;;;1.40;1.10;;;;;;;13.02;62.25;100821.41;5021990;28;20256;-82
2022/09/03 03:52:16;;;;;;;4.33;1.23;;;;;;;12.99;62.53;100816.28;5029340;28;20203;-82
2022/09/03 03:54:42;;;;;;;3.13;1.20;;;;;;;12.99;62.34;100821.63;5026805;28;20221;-82
2022/09/03 03:57:09;;;;;;;1.77;0.83;;;;;;;12.98;62.47;100817.25;5035195;28;20253;-82
2022/09/03 03:59:35;;;;;;;1.37;1.00;;;;;;;12.97;62.67;100812.00;5026549;28;20206;-82
2022/09/03 04:02:03;;;;;;;1.30;1.10;;;;;;;12.97;62.64;100812.00;5034016;28;20206;-82
2022/09/03 04:04:30;;;;;;;2.80;1.03;;;;;;;12.94;62.49;100809.53;5028893;28;20210;-82
2022/09/03 04:06:56;;;;;;;2.00;1.07;;;;;;;12.92;62.63;100815.00;5026114;28;20238;-82
2022/09/03 04:09:23;;;;;;;2.10;1.20;;;;;;;12.91;62.72;100818.63;5030420;28;20202;-82
2022/09/03 04:11:49;;;;;;;3.27;0.93;;;;;;;12.89;62.57;100819.72;5034730;28;20209;-82
2022/09/03 04:14:16;;;;;;;1.07;1.00;;;;;;;12.87;63.00;100827.84;5019131;28;20226;-82
2022/09/03 04:16:45;;;;;;;1.50;0.90;;;;;;;12.85;62.95;100829.75;5021167;28;20236;-82
2022/09/03 04:19:13;;;;;;;1.73;1.00;;;;;;;12.85;63.11;100824.41;5027545;28;20650;-82
2022/09/03 04:21:40;;;;;;;1.37;1.07;;;;;;;12.82;63.11;100814.78;5026326;28;20203;-82
2022/09/03 04:24:07;;;;;;;1.43;0.90;;;;;;;12.80;63.20;100814.03;5026935;28;20828;-82
2022/09/03 04:26:34;;;;;;;3.10;1.17;;;;;;;12.79;63.44;100811.47;5027371;28;20226;-82
2022/09/03 04:29:02;;;;;;;1.60;1.03;;;;;;;12.76;63.57;100809.00;5021087;28;20207;-82
2022/09/03 04:31:29;;;;;;;1.10;1.00;;;;;;;12.70;63.59;100818.34;5024594;28;20206;-82
2022/09/03 04:33:55;;;;;;;1.47;1.10;;;;;;;12.64;63.46;100816.06;5027470;28;20212;-82
2022/09/03 04:36:26;;;;;;;2.90;1.40;;;;;;;12.60;63.94;100813.72;5034427;28;20222;-82
2022/09/03 04:38:55;;;;;;;2.40;1.57;;;;;;;12.55;64.12;100815.84;5024329;28;20203;-82
2022/09/03 04:41:23;;;;;;;4.00;1.60;;;;;;;12.52;64.44;100819.59;5026874;28;20200;-82
2022/09/03 04:43:51;;;;;;;2.87;2.07;;;;;;;12.48;64.53;100813.59;5024654;28;20202;-82
2022/09/03 04:46:19;;;;;;;1.90;1.70;;;;;;;12.47;64.92;100809.22;5023281;28;20260;-82
2022/09/03 04:48:48;;;;;;;2.87;1.57;;;;;;;12.46;64.94;100812.00;5021924;28;20207;-82
2022/09/03 04:51:18;;;;;;;2.07;1.60;;;;;;;12.45;65.11;100816.50;5023792;28;20217;-82
2022/09/03 04:53:48;;;;;;;2.47;1.20;;;;;;;12.43;64.97;100814.88;5026959;28;20202;-81
2022/09/03 04:56:17;;;;;;;2.30;1.40;;;;;;;12.42;65.04;100810.50;5027222;28;20235;-82
2022/09/03 04:58:44;;;;;;;1.53;1.07;;;;;;;12.40;64.69;100809.75;5028830;28;20281;-82
2022/09/03 05:01:11;;;;;;;1.97;1.20;;;;;;;12.36;64.82;100811.75;5031042;28;20216;-82
2022/09/03 05:03:38;;;;;;;1.13;0.90;;;;;;;12.38;65.08;100817.00;5027438;28;20404;-82
2022/09/03 05:06:06;;;;;;;1.83;1.10;;;;;;;12.37;65.14;100812.63;5028799;28;20590;-83
2022/09/03 05:08:35;;;;;;;3.37;1.20;;;;;;;12.38;64.98;100817.84;5030035;28;20241;-83
2022/09/03 05:11:04;;;;;;;2.10;1.20;;;;;;;12.38;64.96;100817.00;5034889;28;20226;-82
2022/09/03 05:13:30;;;;;;;2.70;1.30;;;;;;;12.40;65.18;100818.59;5021270;28;20223;-83
2022/09/03 05:16:00;;;;;;;1.77;1.03;;;;;;;12.42;64.92;100818.50;5036846;28;20317;-81
2022/09/03 05:18:27;;;;;;;1.80;1.10;;;;;;;12.41;65.21;100814.97;5039044;28;20201;-81
2022/09/03 05:20:59;;;;;;;2.93;1.20;;;;;;;12.40;65.35;100817.75;5022045;28;20661;-81
2022/09/03 05:23:26;;;;;;;2.07;0.97;;;;;;;12.39;65.40;100818.72;5022275;28;20206;-81
2022/09/03 05:25:56;;;;;;;1.37;1.07;;;;;;;12.39;65.25;100816.03;5030287;28;20281;-82
2022/09/03 05:28:26;;;;;;;1.53;1.10;;;;;;;12.38;65.41;100815.19;5020155;28;20230;-81
2022/09/03 05:30:59;;;;;;;3.00;1.07;;;;;;;12.38;65.44;100807.16;5022861;28;20209;-81
2022/09/03 05:33:26;;;;;;;1.53;1.10;;;;;;;12.36;65.74;100809.09;5040459;28;20690;-81
2022/09/03 05:35:53;;;;;;;2.17;1.10;;;;;;;12.38;65.71;100809.84;5030525;28;20217;-82
2022/09/03 05:38:20;;;;;;;1.40;1.00;;;;;;;12.40;65.98;100818.59;5036343;28;20197;-81
2022/09/03 05:40:46;;;;;;;3.80;1.20;;;;;;;12.44;65.93;100816.59;5022210;28;20577;-82
2022/09/03 05:43:13;;;;;;;2.20;1.00;;;;;;;12.48;66.50;100813.59;5030435;28;20573;-81
2022/09/03 05:45:41;;;;;;;1.73;1.10;;;;;;;12.54;66.07;100816.81;5035131;28;20995;-80
2022/09/03 05:48:08;;;;;;;1.53;1.10;;;;;;;12.59;66.34;100817.34;5026597;28;20223;-80
2022/09/03 05:50:34;;;;;;;1.20;0.93;;;;;;;12.63;66.04;100811.69;5025817;28;20207;-81
2022/09/03 05:53:01;;;;;;;2.57;1.20;;;;;;;12.69;66.65;100807.75;5025664;28;20213;-81
2022/09/03 05:55:28;;;;;;;2.57;1.20;;;;;;;12.76;66.55;100814.34;5034194;28;20217;-80
2022/09/03 05:57:55;;;;;;;1.30;1.00;;;;;;;12.82;66.67;100814.78;5038931;28;20197;-80
2022/09/03 06:00:21;;;;;;;4.43;1.33;;;;;;;12.88;66.85;100808.19;5038362;28;20219;-80
2022/09/03 06:02:52;;;;;;;1.83;1.20;;;;;;;12.96;66.69;100800.44;5038165;28;20210;-81
2022/09/03 06:05:19;;;;;;;1.77;1.20;;;;;;;13.04;66.71;100800.78;5023735;28;20198;-80
2022/09/03 06:07:47;;;;;;;2.80;1.10;;;;;;;13.12;66.53;100801.06;5018533;28;20238;-81
2022/09/03 06:10:15;;;;;;;2.83;1.20;;;;;;;13.22;66.27;100811.16;5025105;28;20210;-81
2022/09/03 06:12:43;;;;;;;1.57;1.17;;;;;;;13.32;66.27;100818.41;5027534;28;20183;-81
2022/09/03 06:15:10;;;;;;;2.30;1.00;;;;;;;13.42;66.26;100814.09;5018953;28;20301;-80
2022/09/03 06:17:38;;;;;;;1.70;1.03;;;;;;;13.52;66.15;100809.78;5031875;28;20269;-81
2022/09/03 06:20:07;;;;;;;1.10;1.00;;;;;;;13.64;65.81;100809.84;5024804;28;20230;-81
2022/09/03 06:22:33;;;;;;;2.70;1.00;;;;;;;13.75;65.12;100801.88;5031117;28;20644;-81
2022/09/03 06:25:00;;;;;;;1.17;0.93;;;;;;;13.85;64.94;100806.44;5038659;28;20216;-81
2022/09/03 06:27:28;;;;;;;1.60;1.17;;;;;;;13.95;64.94;100801.25;5024178;28;20848;-81
2022/09/03 06:29:57;;;;;;;3.30;1.00;;;;;;;14.06;64.53;100803.13;5026281;28;20636;-80
2022/09/03 06:32:23;;;;;;;1.10;1.00;;;;;;;14.18;64.61;100807.53;5030035;28;20711;-81
2022/09/03 06:34:50;;;;;;;1.43;1.10;;;;;;;14.27;63.51;100806.84;5030391;28;20199;-81
2022/09/03 06:37:18;;;;;;;1.63;1.00;;;;;;;14.36;63.39;100806.13;5026240;28;20229;-81
2022/09/03 06:39:45;;;;;;;3.63;1.10;;;;;;;14.46;63.50;100801.84;5026718;28;20209;-81
2022/09/03 06:42:12;;;;;;;3.90;1.00;;;;;;;14.57;63.26;100806.34;5037241;28;20202;-81
2022/09/03 06:44:38;;;;;;;1.60;0.80;;;;;;;14.69;62.73;100805.38;5037591;28;20357;-81
2022/09/03 06:47:05;;;;;;;1.97;0.90;;;;;;;14.81;62.46;100808.97;5037615;28;20240;-81
2022/09/03 06:49:31;;;;;;;1.73;1.23;;;;;;;14.94;62.30;100802.50;5021171;28;20213;-81
2022/09/03 06:51:58;;;;;;;3.80;0.83;;;;;;;15.09;61.59;100797.75;5022761;28;20211;-81
2022/09/03 06:54:26;;;;;;;1.47;1.20;;;;;;;15.21;61.68;100803.97;5034642;28;20209;-81
2022/09/03 06:56:53;;;;;;;3.27;1.00;;;;;;;15.34;61.15;100803.84;5031927;28;20791;-81
2022/09/03 06:59:19;;;;;;;4.07;1.10;;;;;;;15.46;60.43;100800.16;5033777;28;20597;-81
2022/09/03 07:01:46;;;;;;;2.17;1.20;;;;;;;15.58;60.09;100792.00;5025706;28;20297;-81
2022/09/03 07:04:15;;;;;;;1.77;1.10;;;;;;;15.73;60.07;100797.94;5021667;28;20195;-81
2022/09/03 07:06:43;;;;;;;1.37;0.90;;;;;;;15.85;59.18;100793.38;5026387;28;20231;-81
2022/09/03 07:09:11;;;;;;;2.20;1.40;;;;;;;15.96;58.82;100802.22;5027016;28;20654;-81
2022/09/03 07:11:45;;;;;;;2.00;1.33;;;;;;;16.12;58.58;100800.97;5022500;28;20301;-81
2022/09/03 07:14:12;;;;;;;4.53;1.30;;;;;;;16.21;57.65;100805.56;5030219;28;20198;-81
2022/09/03 07:16:40;;;;;;;3.23;0.80;;;;;;;16.28;57.19;100806.75;5041640;28;20986;-81
2022/09/03 07:19:08;;;;;;;2.13;1.00;;;;;;;16.34;56.99;100798.16;5042163;28;20626;-81
2022/09/03 07:21:36;;;;;;;1.53;1.07;;;;;;;16.37;56.67;100795.22;5041750;28;20218;-80
2022/09/03 07:24:04;;;;;;;3.23;1.13;;;;;;;16.38;56.42;100804.97;5042735;28;20208;-81
2022/09/03 07:26:33;;;;;;;3.23;1.10;;;;;;;16.40;56.25;100799.47;5041554;28;20315;-81
2022/09/03 07:29:01;;;;;;;3.87;1.00;;;;;;;16.41;56.25;100799.34;5042003;28;20701;-81
2022/09/03 07:31:30;;;;;;;1.10;0.97;;;;;;;16.44;56.16;100809.84;5037308;28;20292;-81
2022/09/03 07:33:57;;;;;;;1.27;1.10;;;;;;;16.50;56.35;100805.75;5038179;28;20567;-81
2022/09/03 07:36:26;;;;;;;3.37;1.30;;;;;;;16.55;56.08;100804.38;5042067;28;20312;-81
2022/09/03 07:38:56;;;;;;;2.17;1.10;;;;;;;16.63;56.45;100799.25;5042674;28;20213;-81
2022/09/03 07:41:23;;;;;;;4.13;1.10;;;;;;;16.72;56.40;100804.81;5037403;28;20217;-81
2022/09/03 07:43:51;;;;;;;1.57;1.30;;;;;;;16.77;56.05;100792.66;5036438;28;20237;-80
2022/09/03 07:46:22;;;;;;;1.10;0.90;;;;;;;16.82;55.56;100792.28;5109283;22;20250;-81
2022/09/03 07:48:49;;;;;;;1.90;0.90;;;;;;;16.86;55.87;100793.69;5060353;28;20605;-81
2022/09/03 07:51:17;;;;;;;2.07;1.20;;;;;;;16.93;55.84;100793.03;5047590;28;20631;-81
2022/09/03 07:53:44;;;;;;;2.97;1.00;;;;;;;17.02;56.12;100799.44;5061468;28;20257;-81
2022/09/03 07:56:12;;;;;;;2.17;1.10;;;;;;;17.11;56.01;100801.31;5045963;28;20247;-81
2022/09/03 07:58:42;;;;;;;1.93;1.10;;;;;;;17.20;55.47;100802.34;5034670;28;20220;-81
2022/09/03 08:01:10;;;;;;;2.40;1.00;;;;;;;17.24;54.95;100796.56;5029268;28;20210;-81
2022/09/03 08:03:39;;;;;;;3.67;1.30;;;;;;;17.26;54.09;100802.66;5032133;28;20244;-81
2022/09/03 08:06:07;;;;;;;0.93;0.90;;;;;;;17.28;54.08;100806.06;5026973;28;20765;-81
2022/09/03 08:08:36;;;;;;;1.43;1.13;;;;;;;17.33;54.06;100805.66;5031283;28;20648;-81
2022/09/03 08:11:09;;;;;;;2.10;0.90;;;;;;;17.38;54.25;100802.56;5041693;28;20214;-81
2022/09/03 08:13:36;;;;;;;0.83;0.80;;;;;;;17.43;54.23;100808.38;5035926;28;20199;-81
2022/09/03 08:16:04;;;;;;;2.67;1.43;;;;;;;17.52;53.88;100811.09;5041991;28;20227;-82
2022/09/03 08:18:34;;;;;;;3.40;1.17;;;;;;;17.61;53.69;100809.41;5023719;28;20226;-81
2022/09/03 08:21:02;;;;;;;2.20;1.23;;;;;;;17.70;53.43;100808.63;5036903;28;20252;-81
2022/09/03 08:23:28;;;;;;;2.47;1.00;;;;;;;17.79;53.16;100815.84;5031204;28;20200;-80
2022/09/03 08:25:58;;;;;;;1.53;1.00;;;;;;;17.90;53.14;100806.81;5036497;28;20277;-81
2022/09/03 08:28:25;;;;;;;1.47;1.00;;;;;;;17.96;52.50;100799.00;5028437;28;20226;-81
2022/09/03 08:30:51;;;;;;;1.37;0.83;;;;;;;18.03;52.40;100810.09;5030701;28;20281;-82
2022/09/03 08:33:35;;;;;;;3.50;1.23;;;;;;;18.13;52.20;100804.69;5034229;28;20219;-82
2022/09/03 08:36:04;;;;;;;1.50;0.90;;;;;;;18.25;52.34;100814.34;5027058;28;20323;-81
2022/09/03 08:38:32;;;;;;;1.83;1.17;;;;;;;18.35;51.75;100801.69;5031766;28;20258;-81
2022/09/03 08:41:09;;;;;;;1.10;1.00;;;;;;;18.44;51.50;100800.84;5023207;28;20236;-82
2022/09/03 08:43:51;;;;;;;1.40;1.03;;;;;;;18.58;51.33;100805.78;5029653;28;20672;-81
2022/09/03 08:46:17;;;;;;;3.07;1.10;;;;;;;18.75;51.04;100803.38;5039094;28;20314;-81
2022/09/03 08:48:46;;;;;;;8.80;1.70;;;;;;;18.88;50.55;100803.88;5035474;28;20253;-81
2022/09/03 08:51:16;;;;;;;4.23;1.10;;;;;;;19.04;49.64;100806.81;5039004;28;20764;-81
2022/09/03 08:53:47;;;;;;;2.07;1.10;;;;;;;19.13;49.15;100805.94;5038862;28;20212;-81
2022/09/03 08:56:21;;;;;;;3.53;0.90;;;;;;;19.20;48.50;100795.38;5036032;28;20226;-81
2022/09/03 08:58:47;;;;;;;2.30;0.83;;;;;;;19.28;48.46;100803.59;5031179;28;20204;-81
2022/09/03 09:01:23;;;;;;;3.50;1.10;;;;;;;19.36;48.32;100790.19;5035080;28;20209;-81
2022/09/03 09:03:57;;;;;;;1.37;0.90;;;;;;;19.52;48.72;100792.28;5034080;28;20219;-79
2022/09/03 09:06:34;;;;;;;2.30;1.10;;;;;;;19.69;48.01;100791.47;5038518;28;20416;-79
2022/09/03 09:09:13;;;;;;;3.40;1.10;;;;;;;19.83;47.54;100790.94;5032732;28;20313;-79
2022/09/03 09:11:58;;;;;;;2.00;1.07;;;;;;;19.94;46.99;100785.28;5037206;28;20213;-79
2022/09/03 09:14:32;;;;;;;3.07;0.97;;;;;;;20.04;46.06;100782.53;5040445;28;20225;-80
2022/09/03 09:17:08;;;;;;;5.03;1.10;;;;;;;20.11;45.71;100773.63;5035968;28;20701;-80
2022/09/03 09:19:48;;;;;;;1.70;0.97;;;;;;;20.29;45.55;100772.75;5031198;28;21637;-80
2022/09/03 09:22:27;;;;;;;1.40;0.97;;;;;;;20.43;45.03;100774.91;5030622;28;20238;-81
2022/09/03 09:24:58;;;;;;;1.30;0.90;;;;;;;20.59;44.70;100777.78;5035336;28;20211;-80
2022/09/03 09:27:25;;;;;;;1.43;0.90;;;;;;;20.74;44.51;100767.19;5038134;28;20290;-80
2022/09/03 09:29:54;;;;;;;3.30;0.80;;;;;;;20.87;43.79;100764.91;5029660;28;20288;-80
2022/09/03 09:32:21;;;;;;;2.57;1.00;;;;;;;20.95;43.12;100774.94;5027657;28;20210;-80
2022/09/03 09:34:47;;;;;;;1.53;0.90;;;;;;;21.03;42.61;100766.84;5036935;28;20215;-80
2022/09/03 09:37:17;;;;;;;1.10;0.97;;;;;;;21.10;42.36;100766.03;5033952;28;20221;-81
2022/09/03 09:39:55;;;;;;;3.17;1.20;;;;;;;21.24;42.23;100755.63;5033802;28;20212;-79
2022/09/03 09:42:22;;;;;;;3.03;1.00;;;;;;;21.37;42.02;100753.31;5034170;28;20189;-80
2022/09/03 09:44:49;;;;;;;2.33;0.70;;;;;;;21.50;41.56;100752.84;5033986;28;20270;-80
2022/09/03 09:47:23;;;;;;;1.48;0.75;;;;;;;21.62;41.39;100746.94;5024595;28;20239;-79
2022/09/03 09:49:53;;;;;;;5.63;1.20;;;;;;;21.74;41.05;100755.59;5033736;28;20225;-79
2022/09/03 09:52:24;;;;;;;2.28;0.95;;;;;;;21.80;40.58;100744.09;5035716;28;20285;-79
2022/09/03 09:54:53;;;;;;;3.47;1.25;;;;;;;21.85;39.94;100730.91;5037967;28;20201;-79
2022/09/03 09:57:23;;;;;;;1.75;0.90;;;;;;;21.89;39.96;100734.94;5034332;28;20226;-80
2022/09/03 09:59:50;;;;;;;61.10;4.32;;;;;;;21.94;39.66;100729.88;5033345;28;20195;-80
2022/09/03 10:02:25;;;;;;;5.47;1.60;;;;;;;22.00;39.83;100740.09;5034754;28;20205;-80
2022/09/03 10:04:52;;;;;;;5.50;1.27;;;;;;;22.02;39.51;100738.06;5036114;28;20260;-79
2022/09/03 10:07:25;;;;;;;5.80;1.35;;;;;;;22.08;39.67;100733.81;5031546;28;20226;-80
2022/09/03 10:10:03;;;;;;;4.13;1.08;;;;;;;22.12;39.16;100736.00;5039246;28;20688;-80
2022/09/03 10:12:40;;;;;;;2.42;1.05;;;;;;;22.13;39.18;100740.41;5036783;28;20293;-79
2022/09/03 10:15:23;;;;;;;1.35;0.85;;;;;;;22.16;38.88;100739.25;5037103;28;20212;-81
2022/09/03 10:18:00;;;;;;;2.47;0.90;;;;;;;22.21;38.52;100730.59;5038424;28;20284;-79
2022/09/03 10:20:36;;;;;;;2.17;0.95;;;;;;;22.27;38.81;100730.75;5039316;28;20309;-80
2022/09/03 10:23:11;;;;;;;3.33;1.40;;;;;;;22.32;38.35;100732.94;5038400;28;20226;-80
2022/09/03 10:25:46;;;;;;;0.90;0.90;;;;;;;22.38;38.30;100725.00;5035929;28;20217;-81
2022/09/03 10:28:13;;;;;;;2.88;0.70;;;;;;;22.45;37.79;100723.25;5041610;28;20360;-80
2022/09/03 10:30:54;;;;;;;1.35;0.77;;;;;;;22.54;38.13;100725.97;5042660;28;20215;-81
2022/09/03 10:33:27;;;;;;;1.80;1.10;;;;;;;22.57;37.72;100715.63;5040314;28;20229;-80
2022/09/03 10:36:11;;;;;;;2.03;0.80;;;;;;;22.69;38.02;100732.38;5041713;28;20217;-81
2022/09/03 10:38:42;;;;;;;2.08;0.90;;;;;;;22.77;37.03;100716.94;5037935;28;20798;-80
2022/09/03 10:41:20;;;;;;;2.08;0.80;;;;;;;22.77;36.52;100718.81;5041925;28;20198;-80
2022/09/03 10:44:06;;;;;;;5.65;1.10;;;;;;;22.75;36.67;100704.53;5042982;28;20675;-80
2022/09/03 10:46:43;;;;;;;7.20;0.90;;;;;;;22.80;36.62;100715.75;5043269;28;20241;-80
2022/09/03 10:49:32;;;;;;;2.13;0.70;;;;;;;22.83;36.54;100705.38;5043434;28;20728;-80
2022/09/03 10:52:07;;;;;;;4.45;1.00;;;;;;;22.89;36.76;100717.44;5035517;28;20204;-81
2022/09/03 10:54:48;;;;;;;4.00;1.00;;;;;;;22.92;36.71;100699.94;5036529;28;20209;-81
2022/09/03 10:57:25;;;;;;;2.38;0.85;;;;;;;22.99;36.43;100703.63;5041103;28;20332;-81
2022/09/03 11:00:06;;;;;;;4.82;1.02;;;;;;;23.06;36.74;100697.31;5043636;28;20198;-80
2022/09/03 11:03:12;;;;;;;13.82;2.55;;;;;;;23.16;36.29;100711.53;5038614;28;20203;-81
2022/09/03 11:05:44;;;;;;;3.88;1.08;;;;;;;23.19;36.04;100700.31;4958529;28;20235;-80
2022/09/03 11:08:16;;;;;;;7.53;1.10;;;;;;;23.25;36.17;100704.19;5041938;28;20206;-80
2022/09/03 11:10:49;;;;;;;14.40;1.60;;;;;;;23.33;36.27;100695.13;5042514;28;20263;-80
2022/09/03 11:13:21;;;;;;;3.65;1.02;;;;;;;23.39;36.01;100692.56;5041181;28;20226;-80
2022/09/03 11:15:51;;;;;;;2.67;0.80;;;;;;;23.46;35.90;100689.97;5034379;28;20222;-80
2022/09/03 11:18:24;;;;;;;2.05;1.00;;;;;;;23.53;36.04;100685.53;5041847;28;20306;-81
2022/09/03 11:20:54;;;;;;;1.83;0.80;;;;;;;23.62;36.03;100689.91;5032531;28;20202;-81
2022/09/03 11:23:22;;;;;;;3.97;1.08;;;;;;;23.70;35.26;100691.69;5040167;28;20273;-81
2022/09/03 11:25:54;;;;;;;2.00;0.90;;;;;;;23.71;34.85;100685.22;5038927;28;20230;-80
2022/09/03 11:28:34;;;;;;;1.52;0.70;;;;;;;23.78;35.47;100683.50;5041204;28;20205;-79
2022/09/03 11:34:13;;;;;;;5.78;0.88;;;;;;;23.93;34.74;100692.53;5037147;28;20208;-81
2022/09/03 11:36:40;;;;;;;4.30;1.08;;;;;;;23.99;34.54;100685.53;5036886;28;20222;-80
2022/09/03 11:39:18;;;;;;;1.00;0.88;;;;;;;24.03;34.22;100679.53;5037477;28;20202;-80
2022/09/03 11:41:58;;;;;;;0.77;0.68;;;;;;;24.06;34.07;100676.44;5031771;28;20194;-80
2022/09/03 11:44:24;;;;;;;1.30;0.80;;;;;;;24.08;33.69;100676.25;5043931;28;20199;-80